Time;durP1;ratioP1;P1;durP2;ratioP2;P2;SDS_P1;SDS_P2;PMS_P1;PMS_P2;Temp;Humidity;BMP_temperature;BMP_pressure;BME280_temperature;BME280_humidity;BME280_pressure;Samples;Min_cycle;Max_cycle;Signal;HPM_P1;HPM_P2
2023/02/02 00:10:09;;;;;;;9.68;5.70;;;4.90;60.00;;;;;;20918549;28;20103;-67
2023/02/02 00:20:33;;;;;;;9.35;5.28;;;4.80;60.00;;;;;;20933217;28;20445;-60
2023/02/02 00:30:54;;;;;;;7.10;5.28;;;4.70;60.30;;;;;;20925370;28;20107;-55
2023/02/02 00:40:55;;;;;;;9.07;5.50;;;4.70;60.50;;;;;;20925449;28;20053;-55
2023/02/02 00:50:57;;;;;;;9.15;6.38;;;4.80;60.50;;;;;;20923212;28;20056;-56
2023/02/02 01:00:58;;;;;;;9.45;5.00;;;4.90;60.40;;;;;;20924142;28;20053;-66
2023/02/02 01:10:59;;;;;;;9.27;5.28;;;4.80;60.50;;;;;;20924117;28;20049;-62
2023/02/02 01:21:04;;;;;;;8.68;4.53;;;4.70;60.80;;;;;;20922850;28;20430;-63
2023/02/02 01:31:12;;;;;;;7.00;3.95;;;4.50;61.10;;;;;;20922700;28;20535;-67
2023/02/02 01:41:20;;;;;;;9.32;4.95;;;4.40;61.20;;;;;;20923517;28;20055;-70
2023/02/02 01:51:28;;;;;;;11.40;4.88;;;4.30;61.50;;;;;;20944481;28;20056;-68
2023/02/02 02:01:29;;;;;;;7.97;4.30;;;4.30;61.80;;;;;;20936011;28;20045;-57
2023/02/02 02:11:32;;;;;;;5.85;4.03;;;4.30;61.80;;;;;;20917528;28;20501;-57
2023/02/02 02:32:56;;;;;;;6.82;4.05;;;4.00;62.10;;;;;;20915257;28;20053;-58
2023/02/02 02:43:02;;;;;;;5.72;3.97;;;3.90;62.30;;;;;;20916742;28;20056;-57
2023/02/02 02:53:08;;;;;;;;;;;3.90;62.60;;;;;;20924298;28;20052;-66
2023/02/02 03:03:32;;;;;;;4.90;3.75;;;3.80;62.60;;;;;;20914439;28;19946;-58
2023/02/02 03:13:34;;;;;;;6.53;3.63;;;3.80;62.90;;;;;;20912063;28;20053;-58
2023/02/02 03:23:37;;;;;;;7.10;3.40;;;3.80;62.90;;;;;;20914397;28;20045;-59
2023/02/02 03:33:39;;;;;;;5.60;3.60;;;3.80;63.00;;;;;;20912706;28;20064;-59
2023/02/02 03:43:41;;;;;;;7.20;3.20;;;3.80;62.90;;;;;;20918524;28;20140;-65
2023/02/02 03:53:43;;;;;;;5.07;3.03;;;3.70;63.20;;;;;;20929461;28;20072;-58
2023/02/02 04:03:45;;;;;;;5.18;3.00;;;4.20;61.60;;;;;;20927443;28;20080;-63
2023/02/02 04:13:47;;;;;;;6.18;2.88;;;3.80;63.20;;;;;;20928243;28;20053;-57
2023/02/02 04:23:51;;;;;;;5.60;3.20;;;3.80;63.40;;;;;;20926862;28;20045;-70
2023/02/02 04:33:55;;;;;;;4.43;2.88;;;3.70;63.30;;;;;;20926785;28;20480;-68
2023/02/02 04:43:57;;;;;;;6.22;2.70;;;3.50;63.70;;;;;;20924874;28;20080;-69
2023/02/02 04:53:59;;;;;;;3.92;2.90;;;3.40;64.10;;;;;;20925318;28;20053;-60
2023/02/02 05:04:00;;;;;;;6.13;2.72;;;3.30;64.30;;;;;;20930678;28;20068;-69
2023/02/02 05:14:02;;;;;;;4.53;2.85;;;3.30;64.50;;;;;;20954840;28;20118;-68
2023/02/02 05:24:04;;;;;;;3.90;2.40;;;3.30;64.40;;;;;;20943086;28;20144;-57
2023/02/02 05:34:10;;;;;;;7.50;2.95;;;3.40;64.30;;;;;;20936764;28;20166;-56
2023/02/02 05:44:14;;;;;;;7.18;3.10;;;3.50;64.50;;;;;;20921081;28;20174;-57
2023/02/02 05:54:19;;;;;;;6.28;3.80;;;3.40;64.70;;;;;;20920176;28;20071;-57
2023/02/02 06:04:20;;;;;;;8.02;3.15;;;3.40;64.90;;;;;;20924862;28;20064;-62
2023/02/02 06:14:22;;;;;;;6.85;3.63;;;3.30;65.10;;;;;;20924189;28;20049;-62
2023/02/02 06:24:24;;;;;;;6.63;3.80;;;3.20;65.30;;;;;;20919599;28;20052;-66
2023/02/02 06:34:26;;;;;;;5.25;3.42;;;3.30;65.40;;;;;;20917797;28;20044;-56
2023/02/02 06:44:28;;;;;;;6.88;3.65;;;3.30;65.40;;;;;;20916442;28;20049;-61
2023/02/02 06:54:30;;;;;;;10.20;5.30;;;;;;;;;;20913884;28;20109;-57
2023/02/02 07:04:32;;;;;;;9.05;4.22;;;;;;;;;;20914783;28;20084;-58
2023/02/02 07:14:34;;;;;;;5.57;3.80;;;;;;;;;;20914689;28;20477;-66
2023/02/02 07:24:39;;;;;;;6.82;4.65;;;;;;;;;;20916201;28;20491;-61
2023/02/02 07:34:44;;;;;;;9.00;4.33;;;;;;;;;;20917965;28;20486;-62
2023/02/02 07:44:45;;;;;;;8.73;4.30;;;;;;;;;;20912187;28;20047;-67
2023/02/02 07:54:47;;;;;;;7.85;3.85;;;;;;;;;;20911523;28;20131;-68
2023/02/02 08:04:49;;;;;;;7.00;3.67;;;;;;;;;;20912278;28;20060;-68
2023/02/02 08:14:52;;;;;;;7.10;2.90;;;;;;;;;;20912343;28;20077;-67
2023/02/02 08:24:54;;;;;;;8.63;3.85;;;;;;;;;;20911566;28;20140;-67
2023/02/02 08:34:56;;;;;;;8.63;4.00;;;;;;;;;;20924460;28;20048;-64
2023/02/02 08:44:57;;;;;;;9.52;6.22;;;;;;;;;;20925077;28;20139;-69
2023/02/02 08:54:59;;;;;;;12.80;4.55;;;3.90;64.00;;;;;;20925992;28;20558;-69
2023/02/02 09:05:02;;;;;;;12.52;4.50;;;4.00;64.20;;;;;;20929115;28;20041;-57
2023/02/02 09:15:04;;;;;;;8.25;5.05;;;4.30;63.20;;;;;;20923963;28;20049;-59
2023/02/02 09:45:02;;;;;;;12.20;5.68;;;4.90;66.90;;;;;;21069619;27;20500;-69
2023/02/02 09:55:06;;;;;;;10.95;5.43;;;9.20;50.00;;;;;;21087805;28;20100;-57
2023/02/02 10:05:17;;;;;;;15.68;8.13;;;7.40;54.20;;;;;;21067122;28;20500;-70
2023/02/02 10:15:22;;;;;;;12.95;5.45;;;7.00;56.00;;;;;;21064428;28;20139;-60
2023/02/02 10:25:28;;;;;;;13.40;6.18;;;7.00;56.80;;;;;;21063235;28;20059;-68
2023/02/02 10:35:44;;;;;;;8.50;4.70;;;7.20;56.80;;;;;;21063091;28;20387;-68
2023/02/02 10:45:49;;;;;;;14.95;6.80;;;7.50;56.20;;;;;;21007156;28;20055;-67
2023/02/02 10:55:58;;;;;;;16.00;7.28;;;7.80;55.80;;;;;;21006282;28;20466;-70
2023/02/02 11:16:26;;;;;;;11.60;7.38;;;8.40;53.30;;;;;;21004059;28;20051;-68
2023/02/02 11:26:47;;;;;;;11.15;7.60;;;10.20;48.20;;;;;;21002581;28;20496;-62
2023/02/02 11:37:00;;;;;;;13.25;8.23;;;9.60;49.40;;;;;;21003128;28;20048;-69
2023/02/02 11:47:04;;;;;;;14.38;8.25;;;9.30;50.30;;;;;;21002581;28;20057;-66
2023/02/02 11:57:09;;;;;;;19.63;10.68;;;9.40;50.00;;;;;;21000900;28;20132;-68
2023/02/02 12:07:24;;;;;;;16.90;9.88;;;9.70;49.40;;;;;;21001374;28;20488;-62
2023/02/02 12:17:29;;;;;;;22.23;12.85;;;9.80;48.20;;;;;;21000561;28;20056;-59
2023/02/02 12:27:44;;;;;;;13.53;8.90;;;10.10;47.70;;;;;;20998572;28;20049;-62
2023/02/02 12:38:13;;;;;;;16.08;9.43;;;10.30;46.50;;;;;;20998204;28;20087;-61
2023/02/02 12:48:50;;;;;;;15.55;8.95;;;10.50;46.10;;;;;;20997904;28;20132;-68
2023/02/02 12:59:16;;;;;;;19.38;10.15;;;10.70;43.50;;;;;;20997927;28;20045;-56
2023/02/02 13:09:27;;;;;;;;;;;10.80;43.20;;;;;;20998764;28;20057;-64
2023/02/02 13:19:35;;;;;;;16.90;9.55;;;10.90;42.70;;;;;;20996368;28;19921;-56
2023/02/02 13:29:48;;;;;;;18.33;11.05;;;11.00;42.40;;;;;;20995689;28;20059;-59
2023/02/02 13:39:59;;;;;;;18.23;10.20;;;11.20;42.30;;;;;;20994315;28;20086;-63
2023/02/02 13:50:11;;;;;;;19.15;10.82;;;11.30;42.10;;;;;;20995001;28;20049;-61
2023/02/02 14:00:36;;;;;;;18.33;10.95;;;11.50;41.80;;;;;;20995676;28;20150;-58
2023/02/02 14:11:02;;;;;;;16.10;11.35;;;11.60;41.00;;;;;;20995552;28;20102;-59
2023/02/02 14:21:06;;;;;;;20.55;12.05;;;11.70;40.80;;;;;;21013229;28;20120;-65
2023/02/02 14:31:41;;;;;;;24.48;11.82;;;11.80;41.50;;;;;;21002270;28;20391;-70
2023/02/02 14:52:36;;;;;;;18.80;10.73;;;11.80;40.40;;;;;;21008595;28;20149;-68
2023/02/02 15:02:38;;;;;;;20.45;11.43;;;11.80;40.20;;;;;;21008364;28;20067;-68
2023/02/02 15:12:48;;;;;;;24.67;14.77;;;11.80;40.50;;;;;;21006711;28;20494;-59
2023/02/02 15:23:16;;;;;;;19.10;12.60;;;11.80;41.00;;;;;;21005763;28;20044;-60
2023/02/02 15:33:27;;;;;;;23.80;12.43;;;11.90;40.80;;;;;;21004868;28;20517;-67
2023/02/02 15:43:30;;;;;;;22.17;13.77;;;11.80;40.50;;;;;;21004514;28;20052;-59
2023/02/02 15:53:53;;;;;;;18.58;11.50;;;11.70;41.20;;;;;;21006557;28;20048;-68
2023/02/02 16:04:16;;;;;;;18.35;11.40;;;11.80;40.10;;;;;;21001867;28;20048;-69
2023/02/02 16:14:18;;;;;;;18.65;11.25;;;11.80;40.60;;;;;;21002388;28;20074;-68
2023/02/02 16:24:35;;;;;;;22.90;12.38;;;11.70;41.60;;;;;;21007169;28;20114;-68
2023/02/02 16:34:39;;;;;;;22.27;12.93;;;11.60;41.70;;;;;;20997775;28;20136;-66
2023/02/02 16:44:42;;;;;;;19.40;10.83;;;11.50;41.80;;;;;;20997824;28;20451;-64
2023/02/02 16:54:51;;;;;;;22.85;11.60;;;11.50;41.30;;;;;;20998676;28;20052;-68
2023/02/02 17:05:09;;;;;;;18.65;11.32;;;11.40;41.80;;;;;;20997492;28;20402;-70
2023/02/02 17:15:16;;;;;;;24.27;13.30;;;11.30;41.40;;;;;;20996684;28;20075;-69
2023/02/02 17:25:27;;;;;;;26.20;14.75;;;11.20;42.30;;;;;;20995995;28;20451;-67
2023/02/02 17:35:30;;;;;;;21.63;12.98;;;11.20;42.80;;;;;;20995198;28;20048;-60
2023/02/02 17:45:34;;;;;;;22.33;14.55;;;11.00;43.50;;;;;;20995124;28;20141;-60
2023/02/02 17:55:46;;;;;;;25.35;14.38;;;10.90;44.00;;;;;;21009755;28;20556;-57
2023/02/02 18:05:48;;;;;;;28.75;16.00;;;10.80;44.50;;;;;;21010926;28;20493;-57
2023/02/02 18:15:52;;;;;;;29.88;18.65;;;10.70;45.10;;;;;;21010130;28;20048;-65
2023/02/02 18:25:54;;;;;;;25.13;15.17;;;10.70;45.80;;;;;;21007627;28;20053;-58
2023/02/02 18:35:55;;;;;;;27.27;14.57;;;10.50;46.40;;;;;;21007878;28;20044;-59
2023/02/02 18:46:03;;;;;;;27.17;15.10;;;10.20;46.80;;;;;;21007526;28;20048;-66
2023/02/02 18:56:06;;;;;;;28.25;15.93;;;10.10;47.60;;;;;;21007467;28;20059;-64
2023/02/02 19:16:32;;;;;;;34.80;19.20;;;9.90;48.90;;;;;;21005043;28;20139;-64
2023/02/02 19:26:37;;;;;;;25.90;14.10;;;9.70;50.00;;;;;;21004915;28;20049;-67
2023/02/02 19:36:44;;;;;;;26.17;13.48;;;9.60;50.50;;;;;;21003655;28;20053;-70
2023/02/02 19:46:49;;;;;;;22.33;11.82;;;9.40;51.20;;;;;;21005883;28;20139;-69
2023/02/02 19:56:52;;;;;;;;;;;9.20;52.20;;;;;;21001862;28;20044;-68
2023/02/02 20:06:55;;;;;;;22.38;8.77;;;9.00;52.30;;;;;;21000890;28;19920;-69
2023/02/02 20:17:05;;;;;;;10.80;7.35;;;8.70;53.40;;;;;;21000345;28;20079;-69
2023/02/02 20:27:18;;;;;;;11.73;6.32;;;8.60;54.10;;;;;;20999314;28;20135;-68
2023/02/02 20:37:22;;;;;;;9.43;6.63;;;8.30;54.70;;;;;;20998650;28;20080;-64
2023/02/02 20:47:24;;;;;;;8.97;5.27;;;8.20;55.30;;;;;;20998871;28;20387;-67
2023/02/02 20:57:26;;;;;;;11.40;6.20;;;8.00;55.50;;;;;;20998869;28;20411;-69
2023/02/02 21:07:29;;;;;;;9.15;5.22;;;7.80;55.90;;;;;;20996970;28;20052;-66
2023/02/02 21:17:31;;;;;;;11.95;4.95;;;7.70;56.30;;;;;;20995931;28;20055;-63
2023/02/02 21:27:37;;;;;;;7.85;4.70;;;7.60;56.50;;;;;;20995168;28;20082;-69
2023/02/02 21:37:39;;;;;;;8.05;5.03;;;7.50;56.70;;;;;;20995371;28;20088;-67
2023/02/02 21:47:52;;;;;;;11.63;5.80;;;7.40;57.30;;;;;;20995769;28;20452;-68
2023/02/02 21:57:57;;;;;;;12.02;7.18;;;7.30;57.90;;;;;;20997720;28;20040;-63
2023/02/02 22:08:01;;;;;;;11.43;7.72;;;7.10;58.30;;;;;;20996541;28;20556;-66
2023/02/02 22:18:16;;;;;;;10.77;6.07;;;7.00;58.70;;;;;;20995771;28;20040;-65
2023/02/02 22:28:24;;;;;;;9.32;6.15;;;;;;;;;;20993977;28;20048;-69
2023/02/02 22:38:27;;;;;;;11.10;6.60;;;;;;;;;;21003034;28;20102;-58
2023/02/02 22:48:32;;;;;;;9.73;6.82;;;;;;;;;;21007488;28;20052;-59
2023/02/02 22:58:34;;;;;;;13.60;6.93;;;;;;;;;;21005705;28;20044;-59
2023/02/02 23:08:37;;;;;;;11.90;7.22;;;;;;;;;;21006971;28;20402;-57
2023/02/02 23:18:39;;;;;;;10.50;6.80;;;;;;;;;;21006288;28;20060;-61
2023/02/02 23:28:42;;;;;;;14.98;7.38;;;5.50;61.50;;;;;;21005929;28;20494;-58
2023/02/02 23:38:43;;;;;;;17.10;6.80;;;5.50;61.60;;;;;;21002746;28;20049;-57
2023/02/02 23:48:47;;;;;;;12.40;5.65;;;5.30;62.00;;;;;;21003223;28;20052;-57
2023/02/02 23:58:49;;;;;;;9.63;5.85;;;5.30;62.50;;;;;;21002198;28;20055;-58
